Time;durP1;ratioP1;P1;durP2;ratioP2;P2;SDS_P1;SDS_P2;PMS_P1;PMS_P2;Temp;Humidity;BMP_temperature;BMP_pressure;BME280_temperature;BME280_humidity;BME280_pressure;Samples;Min_cycle;Max_cycle;Signal;HPM_P1;HPM_P2
2021/09/10 00:01:50;;;;;;;2.75;2.10;;;;;;;22.74;57.70;101106.88;5060345;28;20024;-82
2021/09/10 00:04:15;;;;;;;2.72;2.15;;;;;;;22.66;57.55;101094.75;5069775;28;20065;-82
2021/09/10 00:06:40;;;;;;;2.88;2.05;;;;;;;22.72;57.72;101106.03;5056817;28;20170;-82
2021/09/10 00:09:06;;;;;;;3.17;2.47;;;;;;;22.63;57.71;101089.53;5061660;28;20097;-82
2021/09/10 00:11:32;;;;;;;2.53;2.20;;;;;;;22.72;57.70;101107.84;5057343;28;20039;-82
2021/09/10 00:13:57;;;;;;;3.17;2.28;;;;;;;22.75;57.70;101111.25;5038742;28;20029;-83
2021/09/10 00:16:23;;;;;;;2.40;2.00;;;;;;;22.79;57.79;101123.53;5080679;28;20020;-82
2021/09/10 00:18:48;;;;;;;4.57;2.53;;;;;;;22.81;57.66;101126.13;5044967;28;20115;-83
2021/09/10 00:21:14;;;;;;;2.42;2.20;;;;;;;22.66;57.65;101100.03;5059535;28;20045;-82
2021/09/10 00:23:42;;;;;;;2.63;2.03;;;;;;;22.76;57.64;101115.66;5059555;28;20026;-84
2021/09/10 00:26:08;;;;;;;2.70;2.15;;;;;;;22.63;57.56;101094.78;5059524;28;20029;-83
2021/09/10 00:28:33;;;;;;;2.83;1.98;;;;;;;22.79;57.45;101118.25;5060219;28;20050;-85
2021/09/10 00:30:59;;;;;;;3.60;2.47;;;;;;;22.79;57.70;101114.75;5074531;28;20506;-81
2021/09/10 00:33:24;;;;;;;2.17;1.92;;;;;;;22.85;57.57;101129.59;5060358;28;20020;-82
2021/09/10 00:35:50;;;;;;;2.90;1.83;;;;;;;22.64;57.48;101088.63;5060633;28;20368;-83
2021/09/10 00:38:15;;;;;;;2.83;1.92;;;;;;;22.71;57.63;101108.72;5063713;28;20047;-83
2021/09/10 00:40:40;;;;;;;2.85;1.95;;;;;;;22.76;57.70;101099.84;5071686;28;20535;-82
2021/09/10 00:43:06;;;;;;;2.78;2.38;;;;;;;22.87;57.58;101119.88;5060868;28;20035;-82
2021/09/10 00:45:31;;;;;;;2.97;2.45;;;;;;;22.83;57.45;101113.81;5071571;28;20088;-84
2021/09/10 00:47:57;;;;;;;3.63;2.70;;;;;;;22.62;57.56;101077.25;5080616;28;20023;-83
2021/09/10 00:50:23;;;;;;;2.90;2.10;;;;;;;22.64;57.45;101081.59;5060286;28;20024;-83
2021/09/10 00:52:49;;;;;;;2.75;2.17;;;;;;;22.78;57.65;101103.31;5050994;28;20028;-83
2021/09/10 00:55:24;;;;;;;3.50;2.20;;;;;;;22.66;57.60;101081.56;5069217;28;20039;-82
2021/09/10 00:57:50;;;;;;;2.65;2.15;;;;;;;22.77;57.59;101095.44;5061028;28;20024;-82
2021/09/10 01:00:15;;;;;;;2.80;2.17;;;;;;;22.60;57.67;101064.06;5053154;28;20051;-83
2021/09/10 01:02:41;;;;;;;2.63;1.88;;;;;;;22.68;57.69;101080.66;5061970;28;20496;-82
2021/09/10 01:05:07;;;;;;;2.45;1.92;;;;;;;22.66;57.67;101078.94;5046507;28;20440;-83
2021/09/10 01:07:32;;;;;;;3.33;1.83;;;;;;;22.64;57.82;101078.94;5060695;28;20122;-82
2021/09/10 01:09:58;;;;;;;2.63;1.83;;;;;;;22.84;57.59;101107.63;5060468;28;20039;-83
2021/09/10 01:12:25;;;;;;;2.15;1.83;;;;;;;22.70;57.68;101084.13;5073450;28;20441;-83
2021/09/10 01:14:52;;;;;;;2.75;2.10;;;;;;;22.71;57.66;101080.59;5067079;28;20028;-83
2021/09/10 01:17:18;;;;;;;2.17;1.73;;;;;;;22.85;57.73;101105.88;5067955;28;20036;-83
2021/09/10 01:19:43;;;;;;;3.03;2.50;;;;;;;22.70;57.63;101077.97;5061636;28;20034;-82
2021/09/10 01:22:08;;;;;;;2.85;1.98;;;;;;;22.78;57.61;101094.56;5047398;28;20044;-82
2021/09/10 01:25:06;;;;;;;3.08;2.20;;;;;;;22.68;57.51;101069.22;5059440;28;20036;-82
2021/09/10 01:27:32;;;;;;;2.20;1.98;;;;;;;22.74;57.75;101077.00;5063732;28;20529;-83
2021/09/10 01:29:59;;;;;;;4.40;3.03;;;;;;;22.60;57.58;101060.56;5041473;28;20483;-84
2021/09/10 01:32:25;;;;;;;3.53;1.95;;;;;;;22.63;57.80;101050.84;5023014;28;20052;-83
2021/09/10 01:34:50;;;;;;;4.00;2.10;;;;;;;22.77;57.92;101074.34;5039557;28;20021;-83
2021/09/10 01:37:16;;;;;;;2.90;2.10;;;;;;;22.84;57.81;101086.53;5039443;28;20057;-82
2021/09/10 01:39:41;;;;;;;2.65;2.28;;;;;;;22.61;57.76;101046.50;5039418;28;20452;-82
2021/09/10 01:42:06;;;;;;;2.53;1.73;;;;;;;22.79;57.71;101083.97;5041214;28;20025;-85
2021/09/10 01:44:32;;;;;;;3.17;2.33;;;;;;;22.72;57.61;101081.47;5060261;28;20029;-81
2021/09/10 01:46:57;;;;;;;2.28;1.92;;;;;;;22.71;57.69;101067.41;5039501;28;20406;-83
2021/09/10 01:49:23;;;;;;;2.40;2.13;;;;;;;22.62;57.66;101062.28;5022953;28;20071;-83
2021/09/10 01:51:48;;;;;;;2.67;2.47;;;;;;;22.67;57.71;101067.50;5053904;28;20017;-82
2021/09/10 01:54:13;;;;;;;3.45;2.20;;;;;;;22.63;57.76;101057.88;5059177;28;20035;-83
2021/09/10 01:56:39;;;;;;;2.72;2.13;;;;;;;22.63;57.83;101058.75;5026821;28;20035;-84
2021/09/10 01:59:04;;;;;;;2.90;2.40;;;;;;;22.62;57.71;101058.78;5058409;28;20055;-82
2021/09/10 02:01:30;;;;;;;5.30;2.55;;;;;;;22.73;57.90;101078.78;5033594;28;20029;-83
2021/09/10 02:03:57;;;;;;;2.58;2.33;;;;;;;22.61;57.71;101057.03;5038981;28;20029;-84
2021/09/10 02:06:23;;;;;;;3.03;2.40;;;;;;;22.62;57.69;101057.03;5039144;28;20021;-82
2021/09/10 02:08:49;;;;;;;2.42;1.92;;;;;;;22.67;57.79;101059.56;5039141;28;20540;-84
2021/09/10 02:16:33;;;;;;;3.20;2.35;;;;;;;22.86;57.66;101090.00;5710576;23;20056;31
2021/09/10 02:21:54;;;;;;;2.75;2.30;;;;;;;22.86;57.78;101094.38;5032101;28;20068;-78
2021/09/10 02:24:19;;;;;;;2.65;2.35;;;;;;;22.83;57.74;101086.56;4998898;28;20062;-78
2021/09/10 02:26:45;;;;;;;2.17;1.95;;;;;;;22.81;57.85;101091.88;5017333;28;20025;-77
2021/09/10 02:29:11;;;;;;;2.85;2.13;;;;;;;22.85;57.83;101097.97;5035161;28;20033;-73
2021/09/10 02:31:36;;;;;;;4.40;2.40;;;;;;;22.82;57.96;101083.06;5037818;28;20049;-72
2021/09/10 02:34:02;;;;;;;2.22;1.88;;;;;;;22.76;57.86;101083.16;4999817;28;20387;-72
2021/09/10 02:36:27;;;;;;;2.65;2.05;;;;;;;22.81;57.68;101091.88;4996516;28;20025;-72
2021/09/10 02:38:53;;;;;;;2.40;1.83;;;;;;;22.82;57.76;101098.00;4980377;28;20041;-75
2021/09/10 02:41:18;;;;;;;2.50;1.77;;;;;;;22.85;57.89;101103.22;4999385;28;20026;-72
2021/09/10 02:43:44;;;;;;;3.38;2.58;;;;;;;22.85;57.87;101097.97;4999556;28;20035;-72
2021/09/10 02:46:09;;;;;;;3.42;2.25;;;;;;;22.81;57.83;101099.78;5033406;28;20025;-75
2021/09/10 02:48:34;;;;;;;3.28;2.33;;;;;;;22.81;57.73;101094.50;5000506;28;20068;-72
2021/09/10 02:51:00;;;;;;;2.58;2.03;;;;;;;22.82;57.79;101101.50;5015066;28;20040;-72
2021/09/10 02:53:25;;;;;;;3.67;2.55;;;;;;;22.82;58.03;101106.78;5015696;28;20029;-73
2021/09/10 02:55:51;;;;;;;2.40;2.15;;;;;;;22.83;57.86;101105.91;4999221;28;20538;-74
2021/09/10 02:58:17;;;;;;;2.78;2.45;;;;;;;22.84;58.07;101109.41;5015540;28;20467;-72
2021/09/10 03:00:42;;;;;;;4.18;2.70;;;;;;;22.84;57.80;101117.31;5015762;28;20033;-73
2021/09/10 03:03:07;;;;;;;2.45;2.00;;;;;;;22.79;57.94;101101.56;5015985;28;20025;-73
2021/09/10 03:05:33;;;;;;;3.10;2.45;;;;;;;22.84;57.98;101112.91;4980022;28;20475;-73
2021/09/10 03:07:59;;;;;;;3.00;2.20;;;;;;;22.84;58.03;101110.28;4995956;28;20045;-72
2021/09/10 03:10:25;;;;;;;2.95;2.28;;;;;;;22.77;58.02;101101.59;5029188;28;20068;-72
2021/09/10 03:12:51;;;;;;;3.08;2.42;;;;;;;22.80;57.76;101098.91;4996166;28;20034;-74
2021/09/10 03:15:16;;;;;;;3.20;2.15;;;;;;;22.83;58.01;101094.47;4979687;28;20442;-74
2021/09/10 03:17:42;;;;;;;3.38;2.33;;;;;;;22.83;57.84;101110.28;5015580;28;20057;-74
2021/09/10 03:20:10;;;;;;;3.03;2.65;;;;;;;22.79;58.03;101104.19;4998060;28;20188;-74
2021/09/10 03:22:35;;;;;;;3.03;2.40;;;;;;;22.80;58.17;101109.44;5015258;28;20030;-74
2021/09/10 03:25:01;;;;;;;3.20;2.90;;;;;;;22.79;57.99;101099.78;5032818;28;20368;-74
2021/09/10 03:27:28;;;;;;;2.70;2.17;;;;;;;22.81;57.96;101105.03;5032939;28;20443;-74
2021/09/10 03:29:53;;;;;;;2.63;2.00;;;;;;;22.74;57.94;101090.19;4996903;28;20034;-74
2021/09/10 03:32:19;;;;;;;3.78;2.20;;;;;;;22.83;58.17;101107.66;5015383;28;20095;-74
2021/09/10 03:34:44;;;;;;;2.78;2.28;;;;;;;22.78;57.97;101100.69;5014979;28;20471;-74
2021/09/10 03:37:11;;;;;;;3.45;2.72;;;;;;;22.76;58.11;101088.44;5015387;28;20029;-72
2021/09/10 03:39:37;;;;;;;3.38;2.88;;;;;;;22.83;57.86;101105.03;5032972;28;20021;-72
2021/09/10 03:42:02;;;;;;;3.42;2.70;;;;;;;22.82;58.03;101106.78;5032770;28;20013;-72
2021/09/10 03:44:28;;;;;;;3.20;2.60;;;;;;;22.82;58.19;101100.66;5014828;28;20375;-73
2021/09/10 03:46:53;;;;;;;3.50;2.85;;;;;;;22.81;58.13;101110.31;5015350;28;20036;-74
2021/09/10 03:49:19;;;;;;;2.72;2.33;;;;;;;22.79;58.10;101104.19;5015205;28;20516;-72
2021/09/10 03:51:44;;;;;;;2.75;2.30;;;;;;;22.74;58.04;101101.59;5015217;28;20026;-74
2021/09/10 03:54:09;;;;;;;3.75;3.20;;;;;;;22.80;58.17;101103.31;5014898;28;20479;-72
2021/09/10 03:56:35;;;;;;;3.58;3.10;;;;;;;22.81;57.94;101107.69;4998748;28;20053;-72
2021/09/10 03:59:00;;;;;;;3.90;2.30;;;;;;;22.80;58.11;101105.94;5014970;28;20498;-72
2021/09/10 04:01:25;;;;;;;5.28;3.80;;;;;;;22.78;58.02;101098.06;4999027;28;20132;-74
2021/09/10 04:03:51;;;;;;;3.17;2.88;;;;;;;22.78;58.09;101100.69;5001165;28;20112;-73
2021/09/10 04:06:16;;;;;;;3.10;2.75;;;;;;;22.83;58.16;101105.03;5006201;28;20036;-74
2021/09/10 04:08:41;;;;;;;3.33;2.63;;;;;;;22.83;58.44;101110.28;5018569;28;20051;-73
2021/09/10 04:11:07;;;;;;;3.58;2.95;;;;;;;22.78;58.20;101102.47;5036279;28;20113;-74
2021/09/10 04:13:33;;;;;;;3.63;3.10;;;;;;;22.83;58.05;101112.94;5036445;28;20377;-72
2021/09/10 04:15:58;;;;;;;3.97;2.75;;;;;;;22.80;58.25;101105.94;5018643;28;20033;-74
2021/09/10 04:18:23;;;;;;;3.33;2.60;;;;;;;22.83;58.10;101105.03;5002503;28;20030;-73
2021/09/10 04:20:49;;;;;;;5.18;2.90;;;;;;;22.83;58.43;101110.28;4999735;28;20514;-72
2021/09/10 04:23:14;;;;;;;4.10;3.35;;;;;;;22.79;58.16;101101.56;5018665;28;20052;-72
2021/09/10 04:25:39;;;;;;;3.60;2.97;;;;;;;22.73;58.11;101091.09;5018567;28;20113;-72
2021/09/10 04:28:07;;;;;;;3.08;2.78;;;;;;;22.77;58.27;101096.31;5026224;28;20032;-74
2021/09/10 04:30:33;;;;;;;3.60;3.28;;;;;;;22.82;58.36;101109.44;5008613;28;20028;-74
2021/09/10 04:32:58;;;;;;;4.32;3.75;;;;;;;22.74;58.48;101100.72;5018685;28;20068;-73
2021/09/10 04:35:24;;;;;;;5.00;3.58;;;;;;;22.78;58.17;101099.81;5018345;28;20111;-73
2021/09/10 04:37:49;;;;;;;5.15;4.13;;;;;;;22.78;58.20;101105.97;5001788;28;20021;-72
2021/09/10 04:40:15;;;;;;;4.43;3.20;;;;;;;22.80;58.45;101105.94;5011713;28;20026;-73
2021/09/10 04:42:40;;;;;;;5.18;3.50;;;;;;;22.79;59.15;101099.78;5019484;28;20042;-76
2021/09/10 04:45:07;;;;;;;5.22;3.40;;;;;;;22.86;58.82;101107.56;5022123;28;20029;-74
2021/09/10 04:47:32;;;;;;;4.43;4.03;;;;;;;22.86;59.32;101100.53;5020122;28;20045;-73
2021/09/10 04:49:58;;;;;;;5.00;3.30;;;;;;;22.83;59.51;101100.63;5002486;28;20033;-73
2021/09/10 04:52:23;;;;;;;3.80;3.20;;;;;;;22.82;58.96;101093.59;5036213;28;20352;-74
2021/09/10 04:54:49;;;;;;;3.88;3.47;;;;;;;22.85;58.91;101097.97;5002233;28;20040;-73
2021/09/10 04:57:14;;;;;;;4.50;3.00;;;;;;;22.88;58.89;101103.16;5018741;28;20033;-75
2021/09/10 04:59:39;;;;;;;7.15;3.55;;;;;;;22.85;58.89;101080.34;5018454;28;20041;-74
2021/09/10 05:02:05;;;;;;;5.55;3.88;;;;;;;22.86;58.88;101102.31;5018142;28;20030;-74
2021/09/10 05:04:30;;;;;;;4.90;3.95;;;;;;;22.86;58.77;101091.75;5001833;28;20547;-74
2021/09/10 05:06:56;;;;;;;8.82;4.28;;;;;;;22.87;58.91;101104.03;5035914;28;20029;-74
2021/09/10 05:09:21;;;;;;;4.60;4.13;;;;;;;22.90;59.17;101104.88;5018663;28;20038;-78
2021/09/10 05:11:47;;;;;;;4.97;3.92;;;;;;;22.89;58.97;101103.13;5018767;28;20025;-73
2021/09/10 05:14:14;;;;;;;8.38;4.43;;;;;;;22.93;59.13;101102.19;5018109;28;20540;-73
2021/09/10 05:16:40;;;;;;;5.00;4.50;;;;;;;22.92;59.47;101108.34;5018022;28;20378;-74
2021/09/10 05:19:05;;;;;;;8.18;4.45;;;;;;;22.90;59.58;101104.88;5001637;28;20067;-73
2021/09/10 05:21:31;;;;;;;8.70;5.50;;;;;;;22.89;59.47;101112.81;5017914;28;20183;-73
2021/09/10 05:23:57;;;;;;;7.85;5.43;;;;;;;22.85;59.26;101111.97;5017419;28;20070;-73
2021/09/10 05:26:22;;;;;;;6.00;4.40;;;;;;;22.89;58.95;101116.31;5015005;28;20031;-74
2021/09/10 05:28:48;;;;;;;7.88;4.93;;;;;;;22.84;59.27;101112.91;5037374;28;20032;-73
2021/09/10 05:31:13;;;;;;;8.73;5.90;;;;;;;22.88;59.42;101122.47;5037449;28;20047;-73
2021/09/10 05:33:39;;;;;;;6.70;4.55;;;;;;;22.87;59.37;101126.00;5027773;28;20029;-73
2021/09/10 05:36:04;;;;;;;8.77;5.95;;;;;;;22.83;58.97;101118.22;5000198;28;20033;-73
2021/09/10 05:38:30;;;;;;;9.77;6.00;;;;;;;22.85;59.21;101117.25;5034867;28;20029;-73
2021/09/10 05:40:56;;;;;;;7.95;5.85;;;;;;;22.85;59.18;101122.53;5017633;28;20029;-73
2021/09/10 05:43:21;;;;;;;7.75;4.97;;;;;;;22.86;59.19;101132.19;5017168;28;20025;-73
2021/09/10 05:45:47;;;;;;;8.07;6.45;;;;;;;22.87;59.22;101133.91;5016670;28;20077;-73
2021/09/10 05:48:12;;;;;;;8.48;5.78;;;;;;;22.86;59.42;101120.75;5017465;28;20026;-73
2021/09/10 05:50:38;;;;;;;7.50;5.88;;;;;;;22.87;59.18;101128.66;5000032;28;20087;-73
2021/09/10 05:53:05;;;;;;;8.70;6.70;;;;;;;22.85;59.31;101119.88;5034767;28;20124;-73
2021/09/10 05:55:31;;;;;;;10.35;6.63;;;;;;;22.82;59.33;101114.69;5001515;28;20031;-73
2021/09/10 05:57:56;;;;;;;8.48;5.50;;;;;;;22.84;59.50;101126.09;5000857;28;20022;-73
2021/09/10 06:00:22;;;;;;;7.35;6.60;;;;;;;22.85;59.37;101126.97;5016910;28;20037;-73
2021/09/10 06:02:47;;;;;;;9.02;6.78;;;;;;;22.84;59.18;101126.09;5000245;28;20386;-73
2021/09/10 06:05:13;;;;;;;7.32;6.63;;;;;;;22.85;59.24;101134.88;5000260;28;20120;-73
2021/09/10 06:07:38;;;;;;;7.55;6.53;;;;;;;22.83;59.20;101131.41;5017227;28;20355;-73
2021/09/10 06:10:04;;;;;;;8.80;6.30;;;;;;;22.76;59.48;101131.50;5034261;28;20029;-73
2021/09/10 06:12:30;;;;;;;10.10;7.40;;;;;;;22.86;59.25;101150.63;5034797;28;20022;-73
2021/09/10 06:14:55;;;;;;;13.15;8.77;;;;;;;22.86;59.32;101162.94;5016761;28;20033;-73
2021/09/10 06:17:21;;;;;;;8.48;7.10;;;;;;;22.87;59.38;101168.22;5000564;28;20025;-73
2021/09/10 06:19:46;;;;;;;7.78;6.88;;;;;;;22.86;59.44;101171.75;5034162;28;20160;-73
2021/09/10 06:22:13;;;;;;;7.00;6.30;;;;;;;22.82;59.53;101159.53;5016653;28;20379;-73
2021/09/10 06:24:39;;;;;;;7.75;6.70;;;;;;;22.82;59.58;101164.78;5016862;28;20034;-73
2021/09/10 06:27:05;;;;;;;8.10;6.72;;;;;;;22.77;59.38;101151.69;4999740;28;20025;-73
2021/09/10 06:29:30;;;;;;;9.98;7.35;;;;;;;22.82;59.50;101162.16;5016924;28;20055;-74
2021/09/10 06:31:56;;;;;;;7.70;6.45;;;;;;;22.85;59.59;101171.78;5016943;28;20471;-73
2021/09/10 06:34:21;;;;;;;8.50;6.82;;;;;;;22.84;59.57;101176.19;5016599;28;20029;-73
2021/09/10 06:36:50;;;;;;;7.15;5.78;;;;;;;22.77;59.54;101161.38;5016780;28;20079;-73
2021/09/10 06:39:17;;;;;;;8.75;6.85;;;;;;;22.86;59.38;101176.13;5016602;28;20044;-73
2021/09/10 06:41:43;;;;;;;9.23;7.20;;;;;;;22.87;59.45;101175.25;5000076;28;20442;-73
2021/09/10 06:44:09;;;;;;;8.07;6.13;;;;;;;22.87;59.44;101175.25;5016376;28;20033;-73
2021/09/10 06:46:35;;;;;;;7.25;6.55;;;;;;;22.84;59.20;101172.69;5016377;28;20120;-73
2021/09/10 06:49:00;;;;;;;8.32;5.85;;;;;;;22.81;59.54;101168.34;5016529;28;20045;-73
2021/09/10 06:51:27;;;;;;;7.85;7.05;;;;;;;22.66;59.31;101147.47;5016386;28;20187;-73
2021/09/10 06:53:52;;;;;;;7.07;6.38;;;;;;;22.85;59.45;101180.53;5016618;28;20034;-73
2021/09/10 06:56:18;;;;;;;8.18;6.95;;;;;;;22.87;59.30;101177.88;5035004;28;20041;-73
2021/09/10 06:58:44;;;;;;;7.70;6.90;;;;;;;22.85;59.45;101180.53;5020145;28;20053;-73
2021/09/10 07:01:10;;;;;;;7.63;6.05;;;;;;;22.85;59.57;101174.44;5034886;28;20033;-73
2021/09/10 07:03:36;;;;;;;7.22;6.53;;;;;;;22.89;59.42;101182.25;4999868;28;20026;-73
2021/09/10 07:06:02;;;;;;;9.27;6.90;;;;;;;22.89;59.48;101179.59;5016189;28;20083;-73
2021/09/10 07:08:28;;;;;;;8.10;6.55;;;;;;;22.86;59.30;101182.28;4999480;28;20476;-73
2021/09/10 07:10:54;;;;;;;8.65;6.93;;;;;;;22.80;59.38;101177.13;5016411;28;20028;-73
2021/09/10 07:13:20;;;;;;;8.77;6.93;;;;;;;22.88;59.66;101187.53;4999424;28;20029;-73
2021/09/10 07:15:45;;;;;;;21.50;17.08;;;;;;;22.76;61.50;101191.25;5016125;28;20108;-73
2021/09/10 07:18:11;;;;;;;23.70;19.65;;;;;;;22.62;62.54;101193.22;4999662;28;20029;-73
2021/09/10 07:20:37;;;;;;;26.15;22.15;;;;;;;22.57;63.17;101195.94;4999071;28;20053;-75
2021/09/10 07:23:03;;;;;;;25.45;20.52;;;;;;;22.49;63.52;101197.81;4998544;28;20029;-73
2021/09/10 07:25:28;;;;;;;27.92;21.65;;;;;;;22.53;63.71;101203.94;5033407;28;20472;-72
2021/09/10 07:27:54;;;;;;;31.80;25.27;;;;;;;22.55;63.99;101203.00;5033221;28;20021;-73
2021/09/10 07:30:19;;;;;;;36.33;26.08;;;;;;;22.50;63.88;101199.56;5015439;28;20437;-73
2021/09/10 07:32:45;;;;;;;34.55;25.60;;;;;;;22.54;63.62;101197.75;5015601;28;20025;-73
2021/09/10 07:35:10;;;;;;;34.75;26.80;;;;;;;22.54;64.14;101197.75;4999594;28;20037;-73
2021/09/10 07:37:37;;;;;;;27.92;23.02;;;;;;;22.58;63.90;101207.38;5001583;28;19963;-73
2021/09/10 07:40:05;;;;;;;32.30;26.67;;;;;;;22.56;64.39;101209.16;5036680;28;20037;-73
2021/09/10 07:42:30;;;;;;;34.10;25.85;;;;;;;22.58;64.11;101217.91;5003352;28;20033;-73
2021/09/10 07:44:56;;;;;;;29.40;24.90;;;;;;;22.54;64.42;101221.47;5019732;28;20074;-73
2021/09/10 07:47:22;;;;;;;38.90;28.10;;;;;;;22.55;64.37;101220.59;5003212;28;20036;-73
2021/09/10 07:49:47;;;;;;;32.20;26.70;;;;;;;22.56;64.35;101222.34;5019875;28;20112;-73
2021/09/10 07:52:13;;;;;;;34.92;27.63;;;;;;;22.55;64.64;101228.50;5019532;28;20032;-73
2021/09/10 07:54:38;;;;;;;35.00;27.15;;;;;;;22.50;64.44;101225.06;5037394;28;20037;-73
2021/09/10 07:57:04;;;;;;;34.67;28.77;;;;;;;22.49;64.31;101223.31;5003022;28;20025;-73
2021/09/10 07:59:29;;;;;;;37.92;29.70;;;;;;;22.50;64.40;101225.91;5019521;28;20042;-73
2021/09/10 08:01:55;;;;;;;35.33;28.27;;;;;;;22.55;64.53;101228.50;5019414;28;20025;-73
2021/09/10 08:04:21;;;;;;;29.23;24.13;;;;;;;22.54;64.34;101229.38;5019484;28;20075;-73
2021/09/10 08:06:47;;;;;;;33.45;26.42;;;;;;;22.54;64.37;101221.47;5002877;28;20033;-73
2021/09/10 08:09:12;;;;;;;32.53;25.05;;;;;;;22.55;64.44;101237.28;5002835;28;20048;-73
2021/09/10 08:11:38;;;;;;;35.47;26.30;;;;;;;22.56;64.64;101238.16;5037073;28;20051;-74
2021/09/10 08:14:07;;;;;;;35.13;25.77;;;;;;;22.63;64.19;101242.41;5018297;28;20471;-73
2021/09/10 08:16:33;;;;;;;29.80;26.23;;;;;;;22.63;64.19;101239.78;5019707;28;20048;-73
2021/09/10 08:18:59;;;;;;;30.10;24.40;;;;;;;22.63;64.20;101245.91;5002438;28;20462;-73
2021/09/10 08:21:24;;;;;;;26.88;21.25;;;;;;;22.64;64.18;101241.53;4999012;28;20141;-73
2021/09/10 08:23:50;;;;;;;26.50;20.85;;;;;;;22.62;64.11;101257.34;5016813;28;20033;-73
2021/09/10 08:26:16;;;;;;;25.73;19.90;;;;;;;22.63;64.14;101260.88;5015662;28;20033;-73
2021/09/10 08:28:41;;;;;;;20.25;17.63;;;;;;;22.59;63.81;101246.84;5015694;28;20033;-73
2021/09/10 08:31:07;;;;;;;26.13;18.83;;;;;;;22.61;64.03;101244.19;5016873;28;20021;-74
2021/09/10 08:33:32;;;;;;;23.65;20.77;;;;;;;22.75;63.45;101253.63;5015596;28;20559;-73
2021/09/10 08:35:58;;;;;;;20.63;17.85;;;;;;;22.80;63.59;101254.47;5015327;28;20507;-75
2021/09/10 08:38:23;;;;;;;21.45;18.98;;;;;;;22.79;63.71;101238.69;4998951;28;20022;-73
2021/09/10 08:40:51;;;;;;;20.65;18.42;;;;;;;22.90;63.61;101255.19;4998949;28;20042;-73
2021/09/10 08:43:18;;;;;;;20.30;16.17;;;;;;;22.90;63.22;101243.75;5015289;28;20402;-73
2021/09/10 08:45:43;;;;;;;17.45;15.70;;;;;;;22.94;63.24;101243.69;5016352;28;20104;-73
2021/09/10 08:48:10;;;;;;;20.25;16.38;;;;;;;23.02;63.09;101257.63;4998066;28;20103;-73
2021/09/10 08:50:36;;;;;;;18.60;15.85;;;;;;;22.99;63.18;101252.38;5016358;28;20049;-73
2021/09/10 08:53:01;;;;;;;18.83;15.05;;;;;;;23.04;63.33;101255.81;4982946;28;20080;-74
2021/09/10 08:55:27;;;;;;;19.45;14.88;;;;;;;23.05;63.27;101251.41;4998741;28;20110;-74
2021/09/10 08:57:54;;;;;;;22.30;16.20;;;;;;;23.04;63.02;101258.47;4982342;28;20050;-75
2021/09/10 09:00:34;;;;;;;20.52;13.35;;;;;;;23.02;62.86;101256.75;5015042;28;20022;-75
2021/09/10 09:03:07;;;;;;;16.90;14.43;;;;;;;23.04;63.41;101260.22;5016159;28;20070;-75
2021/09/10 09:05:33;;;;;;;13.98;12.57;;;;;;;23.03;62.90;101255.84;5015110;28;20194;-75
2021/09/10 09:08:31;;;;;;;16.30;13.38;;;;;;;23.04;62.73;101265.50;5015255;28;20113;-74
2021/09/10 09:11:11;;;;;;;13.38;11.98;;;;;;;22.99;62.50;101256.78;5017806;28;20034;-75
2021/09/10 09:13:42;;;;;;;20.90;11.65;;;;;;;23.03;62.72;101259.34;5001833;28;20423;-75
2021/09/10 09:16:30;;;;;;;17.00;13.05;;;;;;;23.04;62.54;101257.59;4999259;28;20079;-75
2021/09/10 09:19:04;;;;;;;14.00;11.82;;;;;;;23.05;62.58;101256.69;5014801;28;20033;-75
2021/09/10 09:21:33;;;;;;;17.85;13.50;;;;;;;23.05;62.84;101264.59;5031906;28;20115;-75
2021/09/10 09:24:16;;;;;;;15.88;13.20;;;;;;;22.95;62.90;101256.00;5017953;28;20261;-75
2021/09/10 09:26:43;;;;;;;13.67;12.10;;;;;;;22.89;62.91;101258.72;5017796;28;20021;-75
2021/09/10 09:29:11;;;;;;;19.75;13.68;;;;;;;22.97;62.91;101270.03;5035638;28;20053;-75
2021/09/10 09:31:37;;;;;;;14.73;12.25;;;;;;;22.96;63.14;101267.41;5035426;28;20383;-75
2021/09/10 09:34:04;;;;;;;15.52;11.60;;;;;;;22.96;63.01;101270.06;5017715;28;20025;-75
2021/09/10 09:36:30;;;;;;;17.83;11.75;;;;;;;22.94;63.23;101256.88;5035709;28;20101;-75
2021/09/10 09:38:56;;;;;;;12.82;10.90;;;;;;;22.98;62.89;101266.47;5001226;28;20143;-75
2021/09/10 09:41:23;;;;;;;15.90;10.88;;;;;;;22.94;62.69;101262.16;5035252;28;20483;-75
2021/09/10 09:43:51;;;;;;;11.60;10.43;;;;;;;22.94;62.92;101272.72;5003257;28;20479;-75
2021/09/10 09:46:19;;;;;;;14.45;9.73;;;;;;;22.93;62.92;101273.59;5021041;28;20374;-74
2021/09/10 09:48:47;;;;;;;14.27;10.25;;;;;;;22.94;62.78;101262.16;5049807;28;20051;-74
2021/09/10 09:51:15;;;;;;;17.85;9.55;;;;;;;23.00;62.56;101277.00;5023923;28;20025;-74
2021/09/10 09:53:42;;;;;;;14.65;9.57;;;;;;;23.01;62.95;101276.97;5035227;28;20068;-74
2021/09/10 09:56:08;;;;;;;11.55;10.30;;;;;;;23.01;62.37;101269.06;5034201;28;20025;-74
2021/09/10 09:58:35;;;;;;;11.15;10.07;;;;;;;23.04;62.31;101276.94;4998928;28;20526;-74
2021/09/10 10:01:02;;;;;;;13.27;10.45;;;;;;;23.06;62.36;101279.53;5015960;28;20416;-74
2021/09/10 10:03:27;;;;;;;12.00;10.52;;;;;;;23.04;62.18;101276.94;5026564;28;20382;-74
2021/09/10 10:06:00;;;;;;;11.02;8.98;;;;;;;23.08;61.93;101283.03;5004322;28;20041;-74
2021/09/10 10:08:41;;;;;;;12.65;8.85;;;;;;;23.09;61.92;101290.94;5036889;28;20382;-74
2021/09/10 10:11:11;;;;;;;13.43;9.35;;;;;;;23.09;61.81;101290.94;5054646;28;20075;-74
2021/09/10 10:13:37;;;;;;;13.73;10.57;;;;;;;23.09;61.82;101287.41;5036854;28;20466;-75
2021/09/10 10:16:03;;;;;;;12.13;9.68;;;;;;;23.11;61.68;101285.59;5003942;28;20040;-75
2021/09/10 10:18:41;;;;;;;9.77;8.85;;;;;;;23.13;61.60;101289.94;5054460;28;20074;-75
2021/09/10 10:21:12;;;;;;;15.38;9.45;;;;;;;23.15;61.61;101287.28;5054219;28;20041;-75
2021/09/10 10:23:43;;;;;;;13.05;10.15;;;;;;;23.15;61.77;101287.28;5036796;28;20028;-75
2021/09/10 10:26:15;;;;;;;14.15;10.65;;;;;;;23.14;61.49;101291.69;5054500;28;20471;-75
2021/09/10 10:28:42;;;;;;;11.82;9.65;;;;;;;23.14;61.62;101288.19;5036479;28;20115;-75
2021/09/10 10:31:08;;;;;;;10.68;9.40;;;;;;;23.12;61.75;101293.47;5020423;28;20025;-75
2021/09/10 10:33:34;;;;;;;11.43;10.43;;;;;;;23.15;61.68;101289.94;5036232;28;20040;-75
2021/09/10 10:36:48;;;;;;;12.68;11.38;;;;;;;23.17;61.39;101290.78;5054484;28;20033;-75
2021/09/10 10:39:15;;;;;;;12.65;10.55;;;;;;;23.17;61.33;101299.56;5019408;28;20453;-75
2021/09/10 10:41:57;;;;;;;13.95;10.20;;;;;;;23.16;61.26;101300.47;5036113;28;20029;-75
2021/09/10 10:44:35;;;;;;;12.65;10.75;;;;;;;23.17;61.34;101302.19;5036689;28;20060;-74
2021/09/10 10:47:31;;;;;;;13.00;10.10;;;;;;;23.17;61.31;101298.69;5035994;28;20032;-75
2021/09/10 10:49:57;;;;;;;11.02;9.80;;;;;;;23.15;61.31;101296.06;5043475;28;20479;-75
2021/09/10 10:52:41;;;;;;;14.43;10.02;;;;;;;23.16;61.37;101297.81;5016495;28;20028;-74
2021/09/10 10:55:13;;;;;;;13.30;10.80;;;;;;;23.16;61.10;101302.22;4996522;28;20036;-74
2021/09/10 10:57:38;;;;;;;11.50;9.57;;;;;;;23.12;61.73;101285.56;5027857;28;20072;-75
2021/09/10 11:00:28;;;;;;;12.38;10.98;;;;;;;23.19;61.56;101293.41;5015789;28;20039;-75
2021/09/10 11:03:16;;;;;;;11.45;10.15;;;;;;;23.17;61.46;101299.56;5032950;28;20025;-75
2021/09/10 11:05:43;;;;;;;11.88;10.63;;;;;;;23.18;61.50;101303.06;5015754;28;20107;-75
2021/09/10 11:08:09;;;;;;;10.77;9.68;;;;;;;23.17;61.67;101301.34;5015672;28;20112;-75
2021/09/10 11:10:35;;;;;;;12.40;10.15;;;;;;;23.17;61.61;101301.34;5018258;28;20154;-75
2021/09/10 11:13:01;;;;;;;10.20;9.02;;;;;;;23.16;61.51;101299.59;4999442;28;20479;-74
2021/09/10 11:15:32;;;;;;;11.63;10.50;;;;;;;23.15;61.32;101298.72;5015067;28;20033;-75
2021/09/10 11:17:59;;;;;;;11.38;10.18;;;;;;;23.17;61.52;101298.69;5015381;28;20080;-75
2021/09/10 11:20:34;;;;;;;12.73;11.05;;;;;;;23.15;61.17;101288.16;5032732;28;20116;-75
2021/09/10 11:23:09;;;;;;;12.55;10.15;;;;;;;23.20;61.09;101298.66;5015155;28;20049;-75
2021/09/10 11:25:49;;;;;;;11.35;9.40;;;;;;;23.16;61.25;101294.31;5017067;28;20038;-75
2021/09/10 11:28:17;;;;;;;11.00;9.90;;;;;;;23.20;61.23;101303.94;5016695;28;20035;-74